• Join FlightAware (Why Join?)
  • Login
  • US Flag 
12:53PM EDT


 

Airport Tracker/Info


-or-


 

Live Flight TrackerFlight Track Log ✈ DAL2369 ✈ 10-Jun-2013 ✈ KATL - KMCO

Flight Track Log - Related Links

Times and Time Zones

All times are in EDT time to prevent confusion due to time zone crossing. See the DAL2369 flight status page for this flight to view local times or setup timezone preferences in your user account.

Time Position Orientation Groundspeed Altitude Reporting Facility
EDT Latitude Longitude Course Direction KTS MPH feet Rate Location/Type
01:17PM 33.6333 -84.4500 168° South 161 185 2,300  Level Atlanta TRACON
01:18PM 33.6167 -84.5167 253° West 214 246 4,700 3,060 Climbing Atlanta TRACON
01:19PM 33.6000 -84.5833 253° West 241 277 8,500 2,580 Climbing Atlanta TRACON
01:20PM 33.3982 -84.2667 180° South  Level FlightAware Approximate
01:20PM 33.5500 -84.6500 228° Southwest 263 303 9,900  Level Atlanta TRACON
01:21PM 33.2883 -84.2428 168° South  Level FlightAware Approximate
01:21PM 33.4833 -84.6500 180° South 297 342 10,000  Level Atlanta TRACON
01:22PM 33.1786 -84.2154 168° South  Level FlightAware Approximate
01:23PM 33.3467 -84.4739 133° Southeast 304 350 13,700  Level Atlanta Center
01:24PM 33.3011 -84.3594 115° Southeast 341 392 16,100 2,100 Climbing Atlanta Center
01:25PM 33.2764 -84.2300 103° East 381 438 17,900 2,160 Climbing Atlanta Center
01:26PM 33.1908 -84.1406 139° Southeast 387 445 20,500 1,800 Climbing Atlanta Center
01:27PM 33.0844 -84.0808 155° Southeast 392 451 21,600 1,200 Climbing Atlanta Center
01:28PM 32.9697 -84.0192 156° South 422 486 23,000 1,500 Climbing Atlanta Center
01:29PM 32.8528 -83.9547 155° Southeast 441 507 24,600 1,680 Climbing Atlanta Center
01:30PM 32.7381 -83.8906 155° Southeast 453 521 26,400 1,620 Climbing Atlanta Center
01:31PM 32.6211 -83.8292 156° South 459 528 27,900 1,500 Climbing Atlanta Center
01:32PM 32.4997 -83.7631 155° Southeast 464 534 29,400 1,620 Climbing Atlanta Center
01:33PM 32.3806 -83.6994 156° South 469 540 31,200 1,620 Climbing Atlanta Center
01:34PM 32.2594 -83.6336 155° Southeast 469 540 32,700 780 Climbing Atlanta Center
01:35PM 32.1083 -83.5572 157° South 493 567 33,000 120 Climbing Jacksonville Center
01:36PM 31.9897 -83.4928 155° Southeast 483 556 33,000  Level Jacksonville Center
01:37PM 31.8689 -83.4258 155° Southeast 478 550 33,000  Level Jacksonville Center
01:38PM 31.7417 -83.3908 167° South 467 537 33,000  Level Jacksonville Center
01:39PM 31.6144 -83.4025 184° South 460 529 33,000  Level Jacksonville Center
01:40PM 31.5017 -83.3847 172° South 460 529 33,000 -420 Level Jacksonville Center
01:41PM 31.3828 -83.3161 154° Southeast 460 529 32,200 -960 Descending Jacksonville Center
01:42PM 31.2725 -83.2450 151° Southeast 460 529 31,100 -1,200 Descending Jacksonville Center
01:43PM 31.1578 -83.1767 153° Southeast 455 524 29,800 -1,380 Descending Jacksonville Center
01:44PM 31.0536 -83.1083 151° Southeast 443 510 28,400 -1,920 Descending Jacksonville Center
01:45PM 30.9575 -83.0525 154° Southeast 415 478 26,000 -1,740 Descending Jacksonville Center
01:46PM 30.8636 -82.9917 151° Southeast 396 456 25,000 -540 Descending Jacksonville Center
01:47PM 30.7592 -82.9289 153° Southeast 385 443 25,000  Level Jacksonville Center
01:48PM 30.6550 -82.8661 153° Southeast 393 452 25,000 -60 Level Jacksonville Center
01:49PM 30.5589 -82.8033 151° Southeast 426 490 24,900  Descending Jacksonville Center
01:50PM 30.4417 -82.7336 153° Southeast 437 503 25,000  Climbing Jacksonville Center
01:51PM 30.3311 -82.6664 152° Southeast 437 503 25,000  Level Jacksonville Center
01:52PM 30.2286 -82.6089 154° Southeast 437 503 25,000 -60 Level Jacksonville Center
01:53PM 30.1178 -82.5444 153° Southeast 443 510 24,900  Descending Jacksonville Center
01:54PM 29.9986 -82.4681 151° Southeast 443 510 25,000  Climbing Jacksonville Center
01:55PM 29.8836 -82.4206 160° South 448 516 24,900  Descending Jacksonville Center
01:56PM 29.7664 -82.3781 163° South 443 510 25,000  Climbing Jacksonville Center
01:57PM 29.6472 -82.3358 163° South 443 510 25,000 -720 Level Jacksonville Center
01:58PM 29.5303 -82.2933 162° South 443 510 23,600 -1,920 Descending Jacksonville Center
01:59PM 29.4172 -82.2536 163° South 437 503 21,200 -2,340 Descending Jacksonville Center
02:00PM 29.3064 -82.2161 164° South 426 490 19,000 -2,160 Descending Jacksonville Center
02:01PM 29.1997 -82.1789 163° South 414 476 16,900 -2,160 Descending Jacksonville Center
02:02PM 29.1056 -82.1225 152° Southeast 403 464 14,800 -2,100 Descending Jacksonville Center
02:03PM 29.0175 -82.0686 152° Southeast 376 433 12,800 -1,740 Descending Jacksonville Center
02:04PM 28.9419 -82.0028 143° Southeast 357 411 11,400 -960 Descending Jacksonville Center
02:05PM 28.8831 -81.9275 132° Southeast 341 392 10,900 -720 Descending Jacksonville Center
02:06PM 28.8364 -81.8544 126° Southeast 306 352 10,000 -960 Descending Jacksonville Center
02:07PM 28.7983 -81.7744 118° Southeast 294 338 9,000 -600 Descending Jacksonville Center
02:08PM 28.7892 -81.7033 98° East 260 299 8,900 -60 Descending Jacksonville Center
02:09PM 28.7864 -81.6253 92° East 248 285 8,900 -300 Level Jacksonville Center
02:10PM 28.7794 -81.5494 96° East 248 285 8,300 -720 Descending Jacksonville Center
02:11PM 28.7722 -81.4739 96° East 243 280 7,500 -1,020 Descending Jacksonville Center
02:12PM 28.7667 -81.4000 95° East 235 270 6,500 -1,440 Descending Orlando TRACON
02:14PM 28.7000 -81.3667 156° South 215 247 4,500 -1,440 Descending Orlando TRACON
02:14PM 28.6667 -81.3500 156° South 220 253 3,500 -780 Descending Orlando TRACON
02:15PM 28.6000 -81.3500 180° South 203 234 3,100 -420 Descending Orlando TRACON